Lady Debora — V2QG7 — position and weather

sailwx.info

Track history (hours):
 
Tides and Currents Weather Stations Pressure Air Temp Water Temp Dewpoint Dewpoint Depression Visibility Wind Speed Wind Dir Waves Ship Positions

Lady Debora

Last reported at 2015-May-20 00:13 UTC. Time now 2015-May-23 07:19 UTC.
Position N 42°58' E 010°00'.

Length 107 m; draft 3.7 m.

Type: Cargo ship. MMSI: 304010760.

Date/timePositionNaut miles runAvg speedWind from/ knotsBaromVisibWave heightAir tempDewpointWater temp
2015-May-20 00:13N 42°58' E 010°00'811.0
2015-May-19 23:29N 43°06' E 009°59'1010.9
2015-May-19 22:34N 43°15' E 009°53'1110.9
2015-May-19 21:33N 43°24' E 009°45'1110.8
2015-May-19 20:33N 43°34' E 009°37'1111.3
2015-May-19 19:34N 43°43' E 009°29'1111.2
2015-May-19 18:33N 43°53' E 009°21'1110.7
2015-May-19 17:34N 44°02' E 009°14'1010.4
2015-May-19 16:33N 44°11' E 009°06'1110.5
2015-May-19 15:33N 44°20' E 008°58'5 4.7
2015-May-19 14:31N 44°24' E 008°54'0 0.0
2015-May-19 13:19N 44°24' E 008°54'0 0.0
2015-May-19 12:31N 44°24' E 008°54'0 0.0
2015-May-19 11:31N 44°24' E 008°54'0 0.0
2015-May-19 10:19N 44°24' E 008°54'0 0.0
2015-May-19 09:31N 44°24' E 008°54'0 0.0
2015-May-19 08:22N 44°24' E 008°54'0 0.0
2015-May-19 07:25N 44°24' E 008°54'0 0.0
2015-May-19 06:28N 44°24' E 008°54'0 0.0
2015-May-19 05:31N 44°24' E 008°54'0 0.0
2015-May-19 04:25N 44°24' E 008°54'0 0.0
2015-May-19 03:31N 44°24' E 008°54'0 0.0
2015-May-19 02:28N 44°24' E 008°54'0 0.0
2015-May-19 01:31N 44°24' E 008°54'0 0.0
2015-May-19 00:31N 44°24' E 008°54'0 0.0
2015-May-18 23:31N 44°24' E 008°54'0 0.0
2015-May-18 22:31N 44°24' E 008°54'0 0.0
2015-May-18 21:31N 44°24' E 008°54'0 0.0
2015-May-18 20:16N 44°24' E 008°54'0 0.0
2015-May-18 19:31N 44°24' E 008°54'0 0.0
2015-May-18 18:28N 44°24' E 008°54'0 0.0
2015-May-18 17:31N 44°24' E 008°54'0 0.0
2015-May-18 16:31N 44°24' E 008°54'0 0.0
2015-May-18 15:31N 44°24' E 008°54'0 0.0
2015-May-18 14:31N 44°24' E 008°54'0 0.0
2015-May-18 13:31N 44°24' E 008°54'0 0.0
2015-May-18 12:31N 44°24' E 008°54'0 0.0
2015-May-18 11:31N 44°24' E 008°54'0 0.0
2015-May-18 10:31N 44°24' E 008°54'0 0.0
2015-May-18 09:28N 44°24' E 008°54'0 0.0
2015-May-18 08:31N 44°24' E 008°54'0 0.0
2015-May-18 07:28N 44°24' E 008°54'0 0.0
2015-May-18 06:28N 44°24' E 008°54'0 0.0
2015-May-18 05:33N 44°24' E 008°54'1 1.2
2015-May-18 04:33N 44°23' E 008°54'0 0.5
2015-May-18 03:32N 44°23' E 008°54'0 0.0
2015-May-18 02:32N 44°23' E 008°54'0 0.0
2015-May-18 01:26N 44°23' E 008°54'0 0.0
2015-May-18 00:32N 44°23' E 008°54'0 0.0
2015-May-17 23:32N 44°23' E 008°54'0 0.0
2015-May-17 22:32N 44°23' E 008°54'0 0.0
2015-May-17 21:32N 44°23' E 008°54'0 0.0
2015-May-17 20:29N 44°23' E 008°54'0 0.0
2015-May-17 19:26N 44°23' E 008°54'0 0.0
2015-May-17 18:26N 44°23' E 008°54'0 0.0
2015-May-17 17:20N 44°23' E 008°54'0 0.0
2015-May-17 16:29N 44°23' E 008°54'0 0.0
2015-May-17 15:32N 44°23' E 008°54'0 0.0
2015-May-17 14:32N 44°23' E 008°54'0 0.0
2015-May-17 13:32N 44°23' E 008°54'0 0.0
2015-May-17 12:26N 44°23' E 008°54'0 0.0
2015-May-17 11:29N 44°23' E 008°54'0 0.0
2015-May-17 10:32N 44°23' E 008°54'0 0.0
2015-May-17 09:26N 44°23' E 008°54'0 0.0
2015-May-17 08:26N 44°23' E 008°54'0 0.0
2015-May-17 07:29N 44°23' E 008°54'0 0.0
2015-May-17 06:32N 44°23' E 008°54'0 0.0
2015-May-17 05:32N 44°23' E 008°54'0 0.0
2015-May-17 04:32N 44°23' E 008°54'0 0.0
2015-May-17 03:32N 44°23' E 008°54'0 0.0
2015-May-17 02:29N 44°23' E 008°54'0 0.0
2015-May-17 01:29N 44°23' E 008°54'0 0.0
2015-May-17 00:32N 44°23' E 008°54'2 1.8
2015-May-16 23:33N 44°21' E 008°55'10 9.6
2015-May-16 22:33N 44°14' E 009°04'1010.4
2015-May-16 21:33N 44°05' E 009°11'1010.4
2015-May-16 20:33N 43°56' E 009°18'1010.4
2015-May-16 19:33N 43°47' E 009°25'1010.1
2015-May-16 18:33N 43°38' E 009°32'1010.2
2015-May-16 17:33N 43°29' E 009°38'1010.3
2015-May-16 16:33N 43°21' E 009°47'8 8.1
2015-May-16 15:33N 43°19' E 009°58'10 9.9
2015-May-16 14:33N 43°27' E 010°07'9 9.1
2015-May-16 13:33N 43°32' E 010°17'1 0.9
2015-May-16 12:33N 43°33' E 010°18'0 0.0
2015-May-16 11:33N 43°33' E 010°18'0 0.0
2015-May-16 10:33N 43°33' E 010°18'0 0.0
2015-May-16 09:33N 43°33' E 010°18'0 0.0
2015-May-16 08:33N 43°33' E 010°18'0 0.0
2015-May-16 07:33N 43°33' E 010°18'0 0.0
2015-May-16 06:33N 43°33' E 010°18'0 0.0
2015-May-16 05:33N 43°33' E 010°18'0 0.0
2015-May-16 04:30N 43°33' E 010°18'0 0.0
2015-May-16 03:33N 43°33' E 010°18'0 0.0
2015-May-16 02:33N 43°33' E 010°18'0 0.0
2015-May-16 01:33N 43°33' E 010°18'0 0.0
2015-May-16 00:33N 43°33' E 010°18'0 0.0
2015-May-15 23:33N 43°33' E 010°18'0 0.0
2015-May-15 22:33N 43°33' E 010°18'0 0.0
2015-May-15 21:33N 43°33' E 010°18'0 0.0
2015-May-15 20:33N 43°33' E 010°18'0 0.0
2015-May-15 19:33N 43°33' E 010°18'0 0.0
2015-May-15 18:33N 43°33' E 010°18'0 0.0
2015-May-15 17:33N 43°33' E 010°18'0 0.0
2015-May-15 16:30N 43°33' E 010°18'0 0.0
2015-May-15 15:33N 43°33' E 010°18'0 0.0
2015-May-15 14:33N 43°33' E 010°18'0 0.0
2015-May-15 13:33N 43°33' E 010°18'0 0.0
2015-May-15 12:30N 43°33' E 010°18'0 0.0
2015-May-15 11:33N 43°33' E 010°18'0 0.0
2015-May-15 10:33N 43°33' E 010°18'0 0.0
2015-May-15 09:27N 43°33' E 010°18'0 0.0
2015-May-15 08:33N 43°33' E 010°18'0 0.0
2015-May-15 07:33N 43°33' E 010°18'0 0.0
2015-May-15 06:33N 43°33' E 010°18'0 0.0
2015-May-15 05:33N 43°33' E 010°18'0 0.0
2015-May-15 04:33N 43°33' E 010°18'0 0.0
2015-May-15 03:33N 43°33' E 010°18'0 0.0
2015-May-15 02:33N 43°33' E 010°18'0 0.0
2015-May-15 01:33N 43°33' E 010°18'0 0.0
2015-May-15 00:33N 43°33' E 010°18'0 0.0
2015-May-14 23:33N 43°33' E 010°18'0 0.0
2015-May-14 22:33N 43°33' E 010°18'0 0.0
2015-May-14 21:33N 43°33' E 010°18'0 0.0
2015-May-14 20:30N 43°33' E 010°18'0 0.0
2015-May-14 19:30N 43°33' E 010°18'0 0.0
2015-May-14 18:33N 43°33' E 010°18'0 0.0
2015-May-14 17:33N 43°33' E 010°18'0 0.0
2015-May-14 16:24N 43°33' E 010°18'0 0.0
2015-May-14 15:30N 43°33' E 010°18'0 0.0
2015-May-14 14:33N 43°33' E 010°18'0 0.0
2015-May-14 13:33N 43°33' E 010°18'0 0.0
2015-May-14 12:33N 43°33' E 010°18'0 0.0
2015-May-14 11:33N 43°33' E 010°18'0 0.0
2015-May-14 10:33N 43°33' E 010°18'0 0.0
2015-May-14 09:30N 43°33' E 010°18'0 0.0
2015-May-14 08:33N 43°33' E 010°18'0 0.3
2015-May-14 07:34N 43°33' E 010°18'2 2.0
2015-May-14 06:32N 43°31' E 010°17'0 0.0
2015-May-14 05:32N 43°31' E 010°17'0 0.0
2015-May-14 04:32N 43°31' E 010°17'0 0.0
2015-May-14 03:32N 43°31' E 010°17'0 0.0
2015-May-14 02:32N 43°31' E 010°17'0 0.0
2015-May-14 01:32N 43°31' E 010°17'0 0.0
2015-May-14 00:32N 43°31' E 010°17'0 0.0
2015-May-13 23:32N 43°31' E 010°17'0 0.0
2015-May-13 22:32N 43°31' E 010°17'0 0.0
2015-May-13 21:29N 43°31' E 010°17'0 0.0
2015-May-13 20:32N 43°31' E 010°17'0 0.0
2015-May-13 19:32N 43°31' E 010°17'0 0.0
2015-May-13 18:32N 43°31' E 010°17'0 0.0
2015-May-13 17:32N 43°31' E 010°17'0 0.0
2015-May-13 16:32N 43°31' E 010°17'0 0.0
2015-May-13 15:26N 43°31' E 010°17'3 3.1
2015-May-13 14:33N 43°29' E 010°14'9 9.4
2015-May-13 13:34N 43°24' E 010°04'9 9.1
2015-May-13 12:33N 43°20' E 009°52'10 9.5
2015-May-13 11:29N 43°14' E 009°40'9 9.7
2015-May-13 10:33N 43°09' E 009°30'9 9.3
2015-May-13 09:33N 43°04' E 009°20'10 9.0
2015-May-13 08:26N 42°58' E 009°08'4910.0
2015-May-13 03:34N 42°27' E 008°17'155 9.7
2015-May-12 11:29N 40°38' E 005°49'84 9.4
2015-May-12 02:33N 39°38' E 004°33'11 9.1
2015-May-12 01:22N 39°33' E 004°21'9 9.4
2015-May-12 00:22N 39°28' E 004°10'9 8.9
2015-May-11 23:19N 39°24' E 003°60'18 9.2
2015-May-11 21:19N 39°15' E 003°39'8 9.1
2015-May-11 20:29N 39°11' E 003°31'8 8.7
2015-May-11 19:33N 39°07' E 003°22'9 8.9
2015-May-11 18:33N 39°02' E 003°12'9 9.3
2015-May-11 17:33N 38°57' E 003°01'9 9.2
2015-May-11 16:33N 38°53' E 002°51'9 8.8
2015-May-11 15:33N 38°48' E 002°42'11 8.5
2015-May-11 14:19N 38°42' E 002°30'8 8.1
2015-May-11 13:23N 38°39' E 002°22'7 8.1
2015-May-11 12:30N 38°35' E 002°14'17 8.3
2015-May-11 10:25N 38°27' E 001°54'16 7.8
2015-May-11 08:21N 38°17' E 001°38'7 7.8
2015-May-11 07:29N 38°13' E 001°31'8 8.3
2015-May-11 06:33N 38°10' E 001°22'18 8.4
2015-May-11 04:26N 38°01' E 001°03'41 8.4
2015-May-10 23:33N 37°39' E 000°19'8 8.3
2015-May-10 22:33N 37°35' E 000°10'8 8.5
2015-May-10 21:33N 37°30' E 000°01'9 8.5
2015-May-10 20:33N 37°25' W 000°08'9 8.4
2015-May-10 19:30N 37°21' W 000°18'17 8.4
2015-May-10 17:26N 37°11' W 000°36'8 8.1
2015-May-10 16:26N 37°07' W 000°44'9 8.2
2015-May-10 15:19N 37°02' W 000°54'10 8.4
2015-May-10 14:09N 36°57' W 001°04'5 8.4
2015-May-10 13:33N 36°54' W 001°10'10 8.2
2015-May-10 12:18N 36°48' W 001°21'7 8.0
2015-May-10 11:28N 36°45' W 001°27'8 8.0
2015-May-10 10:28N 36°40' W 001°36'16 8.0
2015-May-10 08:31N 36°31' W 001°52'8 7.9
2015-May-10 07:32N 36°27' W 001°59'25 7.9
2015-May-10 04:24N 36°19' W 002°29'7 8.4
2015-May-10 03:34N 36°18' W 002°37'8 8.4
2015-May-10 02:33N 36°18' W 002°48'  
Track history (hours):
 
Tides and Currents Weather Stations Pressure Air Temp Water Temp Dewpoint Dewpoint Depression Visibility Wind Speed Wind Dir Waves Ship Positions

Lady Debora

Last reported at 2015-May-20 00:13 UTC. Time now 2015-May-23 07:19 UTC.
Position N 42°58' E 010°00'.

Length 107 m; draft 3.7 m.

Type: Cargo ship. MMSI: 304010760.

Date/timePositionNaut miles runAvg speedWind from/ knotsBaromVisibWave heightAir tempDewpointWater temp
2015-May-20 00:13N 42°58' E 010°00'811.0
2015-May-19 23:29N 43°06' E 009°59'1010.9
2015-May-19 22:34N 43°15' E 009°53'1110.9
2015-May-19 21:33N 43°24' E 009°45'1110.8
2015-May-19 20:33N 43°34' E 009°37'1111.3
2015-May-19 19:34N 43°43' E 009°29'1111.2
2015-May-19 18:33N 43°53' E 009°21'1110.7
2015-May-19 17:34N 44°02' E 009°14'1010.4
2015-May-19 16:33N 44°11' E 009°06'1110.5
2015-May-19 15:33N 44°20' E 008°58'5 4.7
2015-May-19 14:31N 44°24' E 008°54'0 0.0
2015-May-19 13:19N 44°24' E 008°54'0 0.0
2015-May-19 12:31N 44°24' E 008°54'0 0.0
2015-May-19 11:31N 44°24' E 008°54'0 0.0
2015-May-19 10:19N 44°24' E 008°54'0 0.0
2015-May-19 09:31N 44°24' E 008°54'0 0.0
2015-May-19 08:22N 44°24' E 008°54'0 0.0
2015-May-19 07:25N 44°24' E 008°54'0 0.0
2015-May-19 06:28N 44°24' E 008°54'0 0.0
2015-May-19 05:31N 44°24' E 008°54'0 0.0
2015-May-19 04:25N 44°24' E 008°54'0 0.0
2015-May-19 03:31N 44°24' E 008°54'0 0.0
2015-May-19 02:28N 44°24' E 008°54'0 0.0
2015-May-19 01:31N 44°24' E 008°54'0 0.0
2015-May-19 00:31N 44°24' E 008°54'0 0.0
2015-May-18 23:31N 44°24' E 008°54'0 0.0
2015-May-18 22:31N 44°24' E 008°54'0 0.0
2015-May-18 21:31N 44°24' E 008°54'0 0.0
2015-May-18 20:16N 44°24' E 008°54'0 0.0
2015-May-18 19:31N 44°24' E 008°54'0 0.0
2015-May-18 18:28N 44°24' E 008°54'0 0.0
2015-May-18 17:31N 44°24' E 008°54'0 0.0
2015-May-18 16:31N 44°24' E 008°54'0 0.0
2015-May-18 15:31N 44°24' E 008°54'0 0.0
2015-May-18 14:31N 44°24' E 008°54'0 0.0
2015-May-18 13:31N 44°24' E 008°54'0 0.0
2015-May-18 12:31N 44°24' E 008°54'0 0.0
2015-May-18 11:31N 44°24' E 008°54'0 0.0
2015-May-18 10:31N 44°24' E 008°54'0 0.0
2015-May-18 09:28N 44°24' E 008°54'0 0.0
2015-May-18 08:31N 44°24' E 008°54'0 0.0
2015-May-18 07:28N 44°24' E 008°54'0 0.0
2015-May-18 06:28N 44°24' E 008°54'0 0.0
2015-May-18 05:33N 44°24' E 008°54'1 1.2
2015-May-18 04:33N 44°23' E 008°54'0 0.5
2015-May-18 03:32N 44°23' E 008°54'0 0.0
2015-May-18 02:32N 44°23' E 008°54'0 0.0
2015-May-18 01:26N 44°23' E 008°54'0 0.0
2015-May-18 00:32N 44°23' E 008°54'0 0.0
2015-May-17 23:32N 44°23' E 008°54'0 0.0
2015-May-17 22:32N 44°23' E 008°54'0 0.0
2015-May-17 21:32N 44°23' E 008°54'0 0.0
2015-May-17 20:29N 44°23' E 008°54'0 0.0
2015-May-17 19:26N 44°23' E 008°54'0 0.0
2015-May-17 18:26N 44°23' E 008°54'0 0.0
2015-May-17 17:20N 44°23' E 008°54'0 0.0
2015-May-17 16:29N 44°23' E 008°54'0 0.0
2015-May-17 15:32N 44°23' E 008°54'0 0.0
2015-May-17 14:32N 44°23' E 008°54'0 0.0
2015-May-17 13:32N 44°23' E 008°54'0 0.0
2015-May-17 12:26N 44°23' E 008°54'0 0.0
2015-May-17 11:29N 44°23' E 008°54'0 0.0
2015-May-17 10:32N 44°23' E 008°54'0 0.0
2015-May-17 09:26N 44°23' E 008°54'0 0.0
2015-May-17 08:26N 44°23' E 008°54'0 0.0
2015-May-17 07:29N 44°23' E 008°54'0 0.0
2015-May-17 06:32N 44°23' E 008°54'0 0.0
2015-May-17 05:32N 44°23' E 008°54'0 0.0
2015-May-17 04:32N 44°23' E 008°54'0 0.0
2015-May-17 03:32N 44°23' E 008°54'0 0.0
2015-May-17 02:29N 44°23' E 008°54'0 0.0
2015-May-17 01:29N 44°23' E 008°54'0 0.0
2015-May-17 00:32N 44°23' E 008°54'2 1.8
2015-May-16 23:33N 44°21' E 008°55'10 9.6
2015-May-16 22:33N 44°14' E 009°04'1010.4
2015-May-16 21:33N 44°05' E 009°11'1010.4
2015-May-16 20:33N 43°56' E 009°18'1010.4
2015-May-16 19:33N 43°47' E 009°25'1010.1
2015-May-16 18:33N 43°38' E 009°32'1010.2
2015-May-16 17:33N 43°29' E 009°38'1010.3
2015-May-16 16:33N 43°21' E 009°47'8 8.1
2015-May-16 15:33N 43°19' E 009°58'10 9.9
2015-May-16 14:33N 43°27' E 010°07'9 9.1
2015-May-16 13:33N 43°32' E 010°17'1 0.9
2015-May-16 12:33N 43°33' E 010°18'0 0.0
2015-May-16 11:33N 43°33' E 010°18'0 0.0
2015-May-16 10:33N 43°33' E 010°18'0 0.0
2015-May-16 09:33N 43°33' E 010°18'0 0.0
2015-May-16 08:33N 43°33' E 010°18'0 0.0
2015-May-16 07:33N 43°33' E 010°18'0 0.0
2015-May-16 06:33N 43°33' E 010°18'0 0.0
2015-May-16 05:33N 43°33' E 010°18'0 0.0
2015-May-16 04:30N 43°33' E 010°18'0 0.0
2015-May-16 03:33N 43°33' E 010°18'0 0.0
2015-May-16 02:33N 43°33' E 010°18'0 0.0
2015-May-16 01:33N 43°33' E 010°18'0 0.0
2015-May-16 00:33N 43°33' E 010°18'0 0.0
2015-May-15 23:33N 43°33' E 010°18'0 0.0
2015-May-15 22:33N 43°33' E 010°18'0 0.0
2015-May-15 21:33N 43°33' E 010°18'0 0.0
2015-May-15 20:33N 43°33' E 010°18'0 0.0
2015-May-15 19:33N 43°33' E 010°18'0 0.0
2015-May-15 18:33N 43°33' E 010°18'0 0.0
2015-May-15 17:33N 43°33' E 010°18'0 0.0
2015-May-15 16:30N 43°33' E 010°18'0 0.0
2015-May-15 15:33N 43°33' E 010°18'0 0.0
2015-May-15 14:33N 43°33' E 010°18'0 0.0
2015-May-15 13:33N 43°33' E 010°18'0 0.0
2015-May-15 12:30N 43°33' E 010°18'0 0.0
2015-May-15 11:33N 43°33' E 010°18'0 0.0
2015-May-15 10:33N 43°33' E 010°18'0 0.0
2015-May-15 09:27N 43°33' E 010°18'0 0.0
2015-May-15 08:33N 43°33' E 010°18'0 0.0
2015-May-15 07:33N 43°33' E 010°18'0 0.0
2015-May-15 06:33N 43°33' E 010°18'0 0.0
2015-May-15 05:33N 43°33' E 010°18'0 0.0
2015-May-15 04:33N 43°33' E 010°18'0 0.0
2015-May-15 03:33N 43°33' E 010°18'0 0.0
2015-May-15 02:33N 43°33' E 010°18'0 0.0
2015-May-15 01:33N 43°33' E 010°18'0 0.0
2015-May-15 00:33N 43°33' E 010°18'0 0.0
2015-May-14 23:33N 43°33' E 010°18'0 0.0
2015-May-14 22:33N 43°33' E 010°18'0 0.0
2015-May-14 21:33N 43°33' E 010°18'0 0.0
2015-May-14 20:30N 43°33' E 010°18'0 0.0
2015-May-14 19:30N 43°33' E 010°18'0 0.0
2015-May-14 18:33N 43°33' E 010°18'0 0.0
2015-May-14 17:33N 43°33' E 010°18'0 0.0
2015-May-14 16:24N 43°33' E 010°18'0 0.0
2015-May-14 15:30N 43°33' E 010°18'0 0.0
2015-May-14 14:33N 43°33' E 010°18'0 0.0
2015-May-14 13:33N 43°33' E 010°18'0 0.0
2015-May-14 12:33N 43°33' E 010°18'0 0.0
2015-May-14 11:33N 43°33' E 010°18'0 0.0
2015-May-14 10:33N 43°33' E 010°18'0 0.0
2015-May-14 09:30N 43°33' E 010°18'0 0.0
2015-May-14 08:33N 43°33' E 010°18'0 0.3
2015-May-14 07:34N 43°33' E 010°18'2 2.0
2015-May-14 06:32N 43°31' E 010°17'0 0.0
2015-May-14 05:32N 43°31' E 010°17'0 0.0
2015-May-14 04:32N 43°31' E 010°17'0 0.0
2015-May-14 03:32N 43°31' E 010°17'0 0.0
2015-May-14 02:32N 43°31' E 010°17'0 0.0
2015-May-14 01:32N 43°31' E 010°17'0 0.0
2015-May-14 00:32N 43°31' E 010°17'0 0.0
2015-May-13 23:32N 43°31' E 010°17'0 0.0
2015-May-13 22:32N 43°31' E 010°17'0 0.0
2015-May-13 21:29N 43°31' E 010°17'0 0.0
2015-May-13 20:32N 43°31' E 010°17'0 0.0
2015-May-13 19:32N 43°31' E 010°17'0 0.0
2015-May-13 18:32N 43°31' E 010°17'0 0.0
2015-May-13 17:32N 43°31' E 010°17'0 0.0
2015-May-13 16:32N 43°31' E 010°17'0 0.0
2015-May-13 15:26N 43°31' E 010°17'3 3.1
2015-May-13 14:33N 43°29' E 010°14'9 9.4
2015-May-13 13:34N 43°24' E 010°04'9 9.1
2015-May-13 12:33N 43°20' E 009°52'10 9.5
2015-May-13 11:29N 43°14' E 009°40'9 9.7
2015-May-13 10:33N 43°09' E 009°30'9 9.3
2015-May-13 09:33N 43°04' E 009°20'10 9.0
2015-May-13 08:26N 42°58' E 009°08'4910.0
2015-May-13 03:34N 42°27' E 008°17'155 9.7
2015-May-12 11:29N 40°38' E 005°49'84 9.4
2015-May-12 02:33N 39°38' E 004°33'11 9.1
2015-May-12 01:22N 39°33' E 004°21'9 9.4
2015-May-12 00:22N 39°28' E 004°10'9 8.9
2015-May-11 23:19N 39°24' E 003°60'18 9.2
2015-May-11 21:19N 39°15' E 003°39'8 9.1
2015-May-11 20:29N 39°11' E 003°31'8 8.7
2015-May-11 19:33N 39°07' E 003°22'9 8.9
2015-May-11 18:33N 39°02' E 003°12'9 9.3
2015-May-11 17:33N 38°57' E 003°01'9 9.2
2015-May-11 16:33N 38°53' E 002°51'9 8.8
2015-May-11 15:33N 38°48' E 002°42'11 8.5
2015-May-11 14:19N 38°42' E 002°30'8 8.1
2015-May-11 13:23N 38°39' E 002°22'7 8.1
2015-May-11 12:30N 38°35' E 002°14'17 8.3
2015-May-11 10:25N 38°27' E 001°54'16 7.8
2015-May-11 08:21N 38°17' E 001°38'7 7.8
2015-May-11 07:29N 38°13' E 001°31'8 8.3
2015-May-11 06:33N 38°10' E 001°22'18 8.4
2015-May-11 04:26N 38°01' E 001°03'41 8.4
2015-May-10 23:33N 37°39' E 000°19'8 8.3
2015-May-10 22:33N 37°35' E 000°10'8 8.5
2015-May-10 21:33N 37°30' E 000°01'9 8.5
2015-May-10 20:33N 37°25' W 000°08'9 8.4
2015-May-10 19:30N 37°21' W 000°18'17 8.4
2015-May-10 17:26N 37°11' W 000°36'8 8.1
2015-May-10 16:26N 37°07' W 000°44'9 8.2
2015-May-10 15:19N 37°02' W 000°54'10 8.4
2015-May-10 14:09N 36°57' W 001°04'5 8.4
2015-May-10 13:33N 36°54' W 001°10'10 8.2
2015-May-10 12:18N 36°48' W 001°21'7 8.0
2015-May-10 11:28N 36°45' W 001°27'8 8.0
2015-May-10 10:28N 36°40' W 001°36'16 8.0
2015-May-10 08:31N 36°31' W 001°52'8 7.9
2015-May-10 07:32N 36°27' W 001°59'25 7.9
2015-May-10 04:24N 36°19' W 002°29'7 8.4
2015-May-10 03:34N 36°18' W 002°37'8 8.4
2015-May-10 02:33N 36°18' W 002°48'  

Dump ship's entire track history